Overview Statistics Trail Chart Weather Telemetry Raw packets
 

This is the latest recevied telemetry packets stored in our database for station/object OE5RGM-88. If no packets are shown the sender has not sent any telemetry packets the latest 10 day(s).

Telemetry packets is used to share measurements like repeteater parameters, battery voltage, radiation readings (or any other measurements).

<< 1 2 3 >>
Time Press* Temp.in* Hum* QNH* Temp.out*
1777898904 922.3 hPa 25.8 C deg 35.8 % 1018 hPa 0 C deg
1777891291 923.4 hPa 25.7 C deg 35.2 % 1019.2 hPa 0 C deg
1777881787 924.1 hPa 25.6 C deg 34.4 % 1020 hPa 0 C deg
1777855154 921.9 hPa 25.5 C deg 30.6 % 1017.7 hPa 0 C deg
1777853236 922 hPa 25.5 C deg 30.9 % 1017.7 hPa 0 C deg
1777841834 921.8 hPa 25.7 C deg 32.9 % 1017.5 hPa 0 C deg
1777826605 921.7 hPa 26.2 C deg 36.8 % 1017.2 hPa 0 C deg
1777799960 925.7 hPa 25.5 C deg 39.3 % 1021.9 hPa 0 C deg
1777798061 925.7 hPa 25.5 C deg 38 % 1021.9 hPa 0 C deg
1777758121 927.2 hPa 25.5 C deg 38.5 % 1023.5 hPa 0 C deg
1777735291 928.7 hPa 26.1 C deg 39 % 1025 hPa 0 C deg
1777647861 933.8 hPa 25.1 C deg 33.3 % 1030.9 hPa 0 C deg
1777645881 934 hPa 25.1 C deg 33.5 % 1031.2 hPa 0 C deg
1777634470 935.1 hPa 24.9 C deg 33.8 % 1032.5 hPa 0 C deg
1777617355 935.4 hPa 24.6 C deg 26.8 % 1032.9 hPa 0 C deg
1777615437 935.3 hPa 24.5 C deg 23.9 % 1032.8 hPa 0 C deg
1777613538 935.2 hPa 24.4 C deg 22.8 % 1032.7 hPa 0 C deg
1777588819 935.1 hPa 25.3 C deg 29.1 % 1032.3 hPa 0 C deg
1777579456 935.1 hPa 25.4 C deg 36.7 % 1032.3 hPa 0 C deg
1777575569 934.5 hPa 25.3 C deg 35.8 % 1031.7 hPa 0 C deg
1777571785 934.2 hPa 25.5 C deg 35.5 % 1031.2 hPa 0 C deg
1777568004 934 hPa 25.6 C deg 35.4 % 1030.9 hPa 0 C deg
1777566049 933.9 hPa 25.4 C deg 33.5 % 1030.9 hPa 0 C deg
1777564196 933.8 hPa 25.3 C deg 33.2 % 1030.9 hPa 0 C deg
1777562249 934 hPa 25.2 C deg 33 % 1031.2 hPa 0 C deg
*Used Equation Coefficients:
Press: 0, 1, 0
Temp.in: 0, 1, 0
Hum: 0, 1, 0
QNH: 0, 1, 0
Temp.out: 0, 1, 0

  • The parameter names for the analog channels will be Value1, Value2, Value3 (up to Value5) if station has not sent a PARAM-packet that specifies the parameter names for each analog channel.
  • Each analog value is a decimal number between 000 and 255 (according to APRS specifications). The receiver use the telemetry equation coefficientsto to restore the original sensor values. If no EQNS-packet with equation coefficients is sent we will show the values as is (this corresponds to the equation coefficients a=0, b=1 and c=0).
    The sent equation coefficients is used in the equation: a * value2 + b * value + c.
  • The units for the analog values will not be shown if station has not sent a UNIT-packet specifying what unit's to use.
  • The parameter names for the digital bits will be Bit1, Bit2, Bit3 (up to Bit8) if station has not sent a PARAM-packet that specifies the parameter names for each digital bit.
  • All bit labels will be named "On" if station has not sent a UNIT-packet that specifies the label of each bit.
  • A bit is considered to be On when the bit is 1 if station has not sent a BITS-packet that specifies another "Bit sense" (a BITS-packet specify the state of the bits that match the BIT labels)